sensor_id;sensor_type;location;lat;lon;timestamp;temperature;humidity
8537;DHT22;4306;50.210;10.628;2023-06-10T00:00:26;16.00;91.70
8537;DHT22;4306;50.210;10.628;2023-06-10T00:02:53;16.00;91.90
8537;DHT22;4306;50.210;10.628;2023-06-10T00:05:22;15.90;91.80
8537;DHT22;4306;50.210;10.628;2023-06-10T00:07:49;15.90;91.80
8537;DHT22;4306;50.210;10.628;2023-06-10T00:10:16;15.90;91.90
8537;DHT22;4306;50.210;10.628;2023-06-10T00:12:43;15.90;92.10
8537;DHT22;4306;50.210;10.628;2023-06-10T00:15:10;15.80;93.00
8537;DHT22;4306;50.210;10.628;2023-06-10T00:17:37;15.70;93.90
8537;DHT22;4306;50.210;10.628;2023-06-10T00:20:06;15.60;93.70
8537;DHT22;4306;50.210;10.628;2023-06-10T00:22:35;15.60;93.80
8537;DHT22;4306;50.210;10.628;2023-06-10T00:25:03;15.50;94.10
8537;DHT22;4306;50.210;10.628;2023-06-10T00:27:31;15.50;94.50
8537;DHT22;4306;50.210;10.628;2023-06-10T00:30:01;15.40;94.80
8537;DHT22;4306;50.210;10.628;2023-06-10T00:32:29;15.30;94.80
8537;DHT22;4306;50.210;10.628;2023-06-10T00:34:56;15.30;94.60
8537;DHT22;4306;50.210;10.628;2023-06-10T00:37:23;15.30;94.60
8537;DHT22;4306;50.210;10.628;2023-06-10T00:39:51;15.30;95.10
8537;DHT22;4306;50.210;10.628;2023-06-10T00:42:19;15.30;95.10
8537;DHT22;4306;50.210;10.628;2023-06-10T00:44:46;15.30;95.00
8537;DHT22;4306;50.210;10.628;2023-06-10T00:47:13;15.30;95.40
8537;DHT22;4306;50.210;10.628;2023-06-10T00:49:40;15.20;95.30
8537;DHT22;4306;50.210;10.628;2023-06-10T00:52:08;15.20;95.40
8537;DHT22;4306;50.210;10.628;2023-06-10T00:54:36;15.20;95.40
8537;DHT22;4306;50.210;10.628;2023-06-10T00:57:06;15.10;95.50
8537;DHT22;4306;50.210;10.628;2023-06-10T00:59:33;15.10;95.80
8537;DHT22;4306;50.210;10.628;2023-06-10T01:02:00;15.00;95.60
8537;DHT22;4306;50.210;10.628;2023-06-10T01:04:28;15.10;95.60
8537;DHT22;4306;50.210;10.628;2023-06-10T01:07:00;15.00;96.70
8537;DHT22;4306;50.210;10.628;2023-06-10T01:09:36;14.80;98.10
8537;DHT22;4306;50.210;10.628;2023-06-10T01:12:11;14.70;97.50
8537;DHT22;4306;50.210;10.628;2023-06-10T01:14:39;14.70;97.90
8537;DHT22;4306;50.210;10.628;2023-06-10T01:17:10;14.60;98.50
8537;DHT22;4306;50.210;10.628;2023-06-10T01:19:37;14.60;98.50
8537;DHT22;4306;50.210;10.628;2023-06-10T01:22:07;14.60;98.50
8537;DHT22;4306;50.210;10.628;2023-06-10T01:24:36;14.60;98.90
8537;DHT22;4306;50.210;10.628;2023-06-10T01:27:10;14.50;99.10
8537;DHT22;4306;50.210;10.628;2023-06-10T01:29:42;14.50;99.90
8537;DHT22;4306;50.210;10.628;2023-06-10T01:32:15;14.30;99.90
8537;DHT22;4306;50.210;10.628;2023-06-10T01:34:42;14.00;99.90
8537;DHT22;4306;50.210;10.628;2023-06-10T01:37:14;13.80;99.90
8537;DHT22;4306;50.210;10.628;2023-06-10T01:39:42;13.70;99.90
8537;DHT22;4306;50.210;10.628;2023-06-10T01:42:10;13.70;99.90
8537;DHT22;4306;50.210;10.628;2023-06-10T01:44:39;13.60;99.90
8537;DHT22;4306;50.210;10.628;2023-06-10T01:47:07;13.50;99.90
8537;DHT22;4306;50.210;10.628;2023-06-10T01:49:34;13.30;99.90
8537;DHT22;4306;50.210;10.628;2023-06-10T01:52:01;13.50;99.90
8537;DHT22;4306;50.210;10.628;2023-06-10T01:54:29;13.60;99.90
8537;DHT22;4306;50.210;10.628;2023-06-10T01:56:56;13.70;99.90
8537;DHT22;4306;50.210;10.628;2023-06-10T01:59:23;13.70;99.90
8537;DHT22;4306;50.210;10.628;2023-06-10T02:01:50;13.70;99.90
8537;DHT22;4306;50.210;10.628;2023-06-10T02:04:17;13.70;99.90
8537;DHT22;4306;50.210;10.628;2023-06-10T02:06:44;13.70;99.90
8537;DHT22;4306;50.210;10.628;2023-06-10T02:09:11;13.70;99.90
8537;DHT22;4306;50.210;10.628;2023-06-10T02:11:39;13.70;99.90
8537;DHT22;4306;50.210;10.628;2023-06-10T02:14:06;13.70;99.90
8537;DHT22;4306;50.210;10.628;2023-06-10T02:16:33;13.70;99.90
8537;DHT22;4306;50.210;10.628;2023-06-10T02:19:00;13.70;99.90
8537;DHT22;4306;50.210;10.628;2023-06-10T02:21:28;13.60;99.90
8537;DHT22;4306;50.210;10.628;2023-06-10T02:23:55;13.50;99.90
8537;DHT22;4306;50.210;10.628;2023-06-10T02:26:21;13.50;99.90
8537;DHT22;4306;50.210;10.628;2023-06-10T02:28:52;13.50;99.90
8537;DHT22;4306;50.210;10.628;2023-06-10T02:31:19;13.50;99.90
8537;DHT22;4306;50.210;10.628;2023-06-10T02:33:46;13.50;99.90
8537;DHT22;4306;50.210;10.628;2023-06-10T02:36:13;13.50;99.90
8537;DHT22;4306;50.210;10.628;2023-06-10T02:38:41;13.40;99.90
8537;DHT22;4306;50.210;10.628;2023-06-10T02:41:08;13.40;99.90
8537;DHT22;4306;50.210;10.628;2023-06-10T02:43:35;13.30;99.90
8537;DHT22;4306;50.210;10.628;2023-06-10T02:46:03;13.00;99.90
8537;DHT22;4306;50.210;10.628;2023-06-10T02:48:30;12.90;99.90
8537;DHT22;4306;50.210;10.628;2023-06-10T02:50:56;13.00;99.90
8537;DHT22;4306;50.210;10.628;2023-06-10T02:53:23;12.90;99.90
8537;DHT22;4306;50.210;10.628;2023-06-10T02:55:50;12.90;99.90
8537;DHT22;4306;50.210;10.628;2023-06-10T02:58:17;13.00;99.90
8537;DHT22;4306;50.210;10.628;2023-06-10T03:00:44;12.90;99.90
8537;DHT22;4306;50.210;10.628;2023-06-10T03:03:12;12.90;99.90
8537;DHT22;4306;50.210;10.628;2023-06-10T03:05:39;12.90;99.90
8537;DHT22;4306;50.210;10.628;2023-06-10T03:08:06;12.90;99.90
8537;DHT22;4306;50.210;10.628;2023-06-10T03:10:32;12.90;99.90
8537;DHT22;4306;50.210;10.628;2023-06-10T03:13:00;12.90;99.90
8537;DHT22;4306;50.210;10.628;2023-06-10T03:15:27;12.90;99.90
8537;DHT22;4306;50.210;10.628;2023-06-10T03:17:54;12.70;99.90
8537;DHT22;4306;50.210;10.628;2023-06-10T03:20:22;12.60;99.90
8537;DHT22;4306;50.210;10.628;2023-06-10T03:22:51;12.50;99.90
8537;DHT22;4306;50.210;10.628;2023-06-10T03:25:17;12.60;99.90
8537;DHT22;4306;50.210;10.628;2023-06-10T03:27:46;12.60;99.90
8537;DHT22;4306;50.210;10.628;2023-06-10T03:30:14;12.60;99.90
8537;DHT22;4306;50.210;10.628;2023-06-10T03:32:41;12.70;99.90
8537;DHT22;4306;50.210;10.628;2023-06-10T03:35:08;12.70;99.90
8537;DHT22;4306;50.210;10.628;2023-06-10T03:37:36;12.70;99.90
8537;DHT22;4306;50.210;10.628;2023-06-10T03:40:04;12.60;99.90
8537;DHT22;4306;50.210;10.628;2023-06-10T03:42:31;12.70;99.90
8537;DHT22;4306;50.210;10.628;2023-06-10T03:44:58;12.60;99.90
8537;DHT22;4306;50.210;10.628;2023-06-10T03:47:25;12.50;99.90
8537;DHT22;4306;50.210;10.628;2023-06-10T03:49:52;12.60;99.90
8537;DHT22;4306;50.210;10.628;2023-06-10T03:52:19;12.60;99.90
8537;DHT22;4306;50.210;10.628;2023-06-10T03:54:47;12.70;99.90
8537;DHT22;4306;50.210;10.628;2023-06-10T03:57:14;12.70;99.90
8537;DHT22;4306;50.210;10.628;2023-06-10T03:59:41;12.70;99.90
8537;DHT22;4306;50.210;10.628;2023-06-10T04:02:08;12.70;99.90
8537;DHT22;4306;50.210;10.628;2023-06-10T04:04:35;12.70;99.90
8537;DHT22;4306;50.210;10.628;2023-06-10T04:07:03;12.70;99.90
8537;DHT22;4306;50.210;10.628;2023-06-10T04:09:30;12.80;99.90
8537;DHT22;4306;50.210;10.628;2023-06-10T04:11:58;12.80;99.90
8537;DHT22;4306;50.210;10.628;2023-06-10T04:14:25;12.80;99.90
8537;DHT22;4306;50.210;10.628;2023-06-10T04:16:52;12.80;99.90
8537;DHT22;4306;50.210;10.628;2023-06-10T04:19:19;12.90;99.90
8537;DHT22;4306;50.210;10.628;2023-06-10T04:21:46;12.90;99.90
8537;DHT22;4306;50.210;10.628;2023-06-10T04:24:13;12.90;99.90
8537;DHT22;4306;50.210;10.628;2023-06-10T04:26:40;12.90;99.90
8537;DHT22;4306;50.210;10.628;2023-06-10T04:29:08;12.90;99.90
8537;DHT22;4306;50.210;10.628;2023-06-10T04:31:35;13.00;99.90
8537;DHT22;4306;50.210;10.628;2023-06-10T04:34:02;13.00;99.90
8537;DHT22;4306;50.210;10.628;2023-06-10T04:36:29;13.00;99.90
8537;DHT22;4306;50.210;10.628;2023-06-10T04:38:56;13.10;99.90
8537;DHT22;4306;50.210;10.628;2023-06-10T04:41:22;13.10;99.90
8537;DHT22;4306;50.210;10.628;2023-06-10T04:43:51;13.20;99.90
8537;DHT22;4306;50.210;10.628;2023-06-10T04:46:19;13.20;99.90
8537;DHT22;4306;50.210;10.628;2023-06-10T04:48:46;13.30;99.90
8537;DHT22;4306;50.210;10.628;2023-06-10T04:51:13;13.40;99.90
8537;DHT22;4306;50.210;10.628;2023-06-10T04:53:40;13.40;99.90
8537;DHT22;4306;50.210;10.628;2023-06-10T04:56:07;13.50;99.90
8537;DHT22;4306;50.210;10.628;2023-06-10T04:58:34;13.60;99.90
8537;DHT22;4306;50.210;10.628;2023-06-10T05:01:01;13.70;99.90
8537;DHT22;4306;50.210;10.628;2023-06-10T05:03:29;13.80;99.90
8537;DHT22;4306;50.210;10.628;2023-06-10T05:05:56;13.80;99.90
8537;DHT22;4306;50.210;10.628;2023-06-10T05:08:23;13.90;99.90
8537;DHT22;4306;50.210;10.628;2023-06-10T05:10:50;13.90;99.90
8537;DHT22;4306;50.210;10.628;2023-06-10T05:13:17;14.00;99.90
8537;DHT22;4306;50.210;10.628;2023-06-10T05:15:44;14.10;99.90
8537;DHT22;4306;50.210;10.628;2023-06-10T05:18:12;14.20;99.90
8537;DHT22;4306;50.210;10.628;2023-06-10T05:20:40;14.30;99.90
8537;DHT22;4306;50.210;10.628;2023-06-10T05:23:07;14.40;99.90
8537;DHT22;4306;50.210;10.628;2023-06-10T05:25:34;14.50;99.90
8537;DHT22;4306;50.210;10.628;2023-06-10T05:28:01;14.50;99.90
8537;DHT22;4306;50.210;10.628;2023-06-10T05:30:28;14.60;99.90
8537;DHT22;4306;50.210;10.628;2023-06-10T05:32:55;14.80;99.90
8537;DHT22;4306;50.210;10.628;2023-06-10T05:35:23;15.00;99.90
8537;DHT22;4306;50.210;10.628;2023-06-10T05:37:51;15.10;99.90
8537;DHT22;4306;50.210;10.628;2023-06-10T05:40:18;15.20;99.90
8537;DHT22;4306;50.210;10.628;2023-06-10T05:42:45;15.40;99.90
8537;DHT22;4306;50.210;10.628;2023-06-10T05:45:12;15.70;99.90
8537;DHT22;4306;50.210;10.628;2023-06-10T05:47:39;15.90;99.90
8537;DHT22;4306;50.210;10.628;2023-06-10T05:50:07;16.10;99.90
8537;DHT22;4306;50.210;10.628;2023-06-10T05:52:35;16.40;99.90
8537;DHT22;4306;50.210;10.628;2023-06-10T05:55:04;16.60;99.90
8537;DHT22;4306;50.210;10.628;2023-06-10T05:57:32;16.70;99.90
8537;DHT22;4306;50.210;10.628;2023-06-10T05:59:59;16.80;99.90
8537;DHT22;4306;50.210;10.628;2023-06-10T06:02:25;17.00;99.90
8537;DHT22;4306;50.210;10.628;2023-06-10T06:04:52;17.10;99.90
8537;DHT22;4306;50.210;10.628;2023-06-10T06:07:19;17.20;99.90
8537;DHT22;4306;50.210;10.628;2023-06-10T06:09:47;17.50;99.90
8537;DHT22;4306;50.210;10.628;2023-06-10T06:12:15;17.70;99.90
8537;DHT22;4306;50.210;10.628;2023-06-10T06:14:42;17.80;99.90
8537;DHT22;4306;50.210;10.628;2023-06-10T06:17:10;18.30;99.90
8537;DHT22;4306;50.210;10.628;2023-06-10T06:19:37;18.80;99.90
8537;DHT22;4306;50.210;10.628;2023-06-10T06:22:04;19.30;99.90
8537;DHT22;4306;50.210;10.628;2023-06-10T06:24:31;19.80;99.90
8537;DHT22;4306;50.210;10.628;2023-06-10T06:26:58;20.10;99.60
8537;DHT22;4306;50.210;10.628;2023-06-10T06:29:26;20.20;99.90
8537;DHT22;4306;50.210;10.628;2023-06-10T06:31:55;20.20;99.30
8537;DHT22;4306;50.210;10.628;2023-06-10T06:34:22;20.10;99.00
8537;DHT22;4306;50.210;10.628;2023-06-10T06:36:49;20.10;99.20
8537;DHT22;4306;50.210;10.628;2023-06-10T06:39:15;20.10;99.00
8537;DHT22;4306;50.210;10.628;2023-06-10T06:41:42;20.10;98.80
8537;DHT22;4306;50.210;10.628;2023-06-10T06:44:09;20.00;98.70
8537;DHT22;4306;50.210;10.628;2023-06-10T06:46:37;20.10;99.10
8537;DHT22;4306;50.210;10.628;2023-06-10T06:49:04;20.10;98.90
8537;DHT22;4306;50.210;10.628;2023-06-10T06:51:32;20.20;99.00
8537;DHT22;4306;50.210;10.628;2023-06-10T06:53:58;20.20;98.50
8537;DHT22;4306;50.210;10.628;2023-06-10T06:56:25;20.30;98.80
8537;DHT22;4306;50.210;10.628;2023-06-10T06:58:53;20.40;98.40
8537;DHT22;4306;50.210;10.628;2023-06-10T07:01:20;20.50;98.10
8537;DHT22;4306;50.210;10.628;2023-06-10T07:03:48;20.50;98.50
8537;DHT22;4306;50.210;10.628;2023-06-10T07:06:15;20.50;98.40
8537;DHT22;4306;50.210;10.628;2023-06-10T07:08:42;20.60;98.00
8537;DHT22;4306;50.210;10.628;2023-06-10T07:11:09;20.70;98.00
8537;DHT22;4306;50.210;10.628;2023-06-10T07:13:36;20.90;98.10
8537;DHT22;4306;50.210;10.628;2023-06-10T07:16:03;21.00;97.50
8537;DHT22;4306;50.210;10.628;2023-06-10T07:18:30;21.00;97.70
8537;DHT22;4306;50.210;10.628;2023-06-10T07:20:58;21.10;97.70
8537;DHT22;4306;50.210;10.628;2023-06-10T07:23:25;21.20;97.60
8537;DHT22;4306;50.210;10.628;2023-06-10T07:25:52;21.40;97.10
8537;DHT22;4306;50.210;10.628;2023-06-10T07:28:18;21.50;97.00
8537;DHT22;4306;50.210;10.628;2023-06-10T07:30:45;21.70;96.80
8537;DHT22;4306;50.210;10.628;2023-06-10T07:33:12;21.70;96.60
8537;DHT22;4306;50.210;10.628;2023-06-10T07:35:39;21.80;96.50
8537;DHT22;4306;50.210;10.628;2023-06-10T07:38:09;21.90;96.30
8537;DHT22;4306;50.210;10.628;2023-06-10T07:40:36;21.90;95.60
8537;DHT22;4306;50.210;10.628;2023-06-10T07:43:03;21.90;96.00
8537;DHT22;4306;50.210;10.628;2023-06-10T07:45:30;22.10;96.20
8537;DHT22;4306;50.210;10.628;2023-06-10T07:47:57;22.20;95.90
8537;DHT22;4306;50.210;10.628;2023-06-10T07:50:24;22.30;95.80
8537;DHT22;4306;50.210;10.628;2023-06-10T07:52:51;22.40;95.20
8537;DHT22;4306;50.210;10.628;2023-06-10T07:55:19;22.40;94.90
8537;DHT22;4306;50.210;10.628;2023-06-10T07:57:46;22.50;94.80
8537;DHT22;4306;50.210;10.628;2023-06-10T08:00:13;22.60;95.20
8537;DHT22;4306;50.210;10.628;2023-06-10T08:02:40;22.70;94.70
8537;DHT22;4306;50.210;10.628;2023-06-10T08:05:07;22.70;94.10
8537;DHT22;4306;50.210;10.628;2023-06-10T08:07:35;22.80;94.40
8537;DHT22;4306;50.210;10.628;2023-06-10T08:10:02;22.80;93.80
8537;DHT22;4306;50.210;10.628;2023-06-10T08:12:31;22.90;94.40
8537;DHT22;4306;50.210;10.628;2023-06-10T08:14:58;23.00;93.30
8537;DHT22;4306;50.210;10.628;2023-06-10T08:17:24;23.30;93.50
8537;DHT22;4306;50.210;10.628;2023-06-10T08:19:51;23.30;93.10
8537;DHT22;4306;50.210;10.628;2023-06-10T08:22:18;23.50;92.40
8537;DHT22;4306;50.210;10.628;2023-06-10T08:24:45;23.50;92.80
8537;DHT22;4306;50.210;10.628;2023-06-10T08:27:12;23.60;92.70
8537;DHT22;4306;50.210;10.628;2023-06-10T08:29:40;23.60;91.80
8537;DHT22;4306;50.210;10.628;2023-06-10T08:32:07;23.80;91.40
8537;DHT22;4306;50.210;10.628;2023-06-10T08:34:34;23.80;91.90
8537;DHT22;4306;50.210;10.628;2023-06-10T08:37:02;23.90;91.50
8537;DHT22;4306;50.210;10.628;2023-06-10T08:39:29;23.90;91.20
8537;DHT22;4306;50.210;10.628;2023-06-10T08:42:04;24.00;91.20
8537;DHT22;4306;50.210;10.628;2023-06-10T08:47:54;24.10;90.30
8537;DHT22;4306;50.210;10.628;2023-06-10T08:50:23;24.20;90.40
8537;DHT22;4306;50.210;10.628;2023-06-10T08:52:53;24.40;89.20
8537;DHT22;4306;50.210;10.628;2023-06-10T08:55:26;24.40;90.20
8537;DHT22;4306;50.210;10.628;2023-06-10T08:57:53;24.50;88.50
8537;DHT22;4306;50.210;10.628;2023-06-10T09:00:21;24.50;88.20
8537;DHT22;4306;50.210;10.628;2023-06-10T09:02:49;24.60;89.60
8537;DHT22;4306;50.210;10.628;2023-06-10T09:05:18;24.70;88.30
8537;DHT22;4306;50.210;10.628;2023-06-10T09:07:46;24.80;87.30
8537;DHT22;4306;50.210;10.628;2023-06-10T09:10:14;24.80;85.40
8537;DHT22;4306;50.210;10.628;2023-06-10T09:12:49;24.90;85.10
8537;DHT22;4306;50.210;10.628;2023-06-10T09:15:19;25.00;83.70
8537;DHT22;4306;50.210;10.628;2023-06-10T09:17:46;25.00;84.10
8537;DHT22;4306;50.210;10.628;2023-06-10T09:20:13;25.00;83.00
8537;DHT22;4306;50.210;10.628;2023-06-10T09:22:45;25.10;82.70
8537;DHT22;4306;50.210;10.628;2023-06-10T09:25:13;25.00;81.20
8537;DHT22;4306;50.210;10.628;2023-06-10T09:27:45;25.00;83.60
8537;DHT22;4306;50.210;10.628;2023-06-10T09:30:24;25.20;82.00
8537;DHT22;4306;50.210;10.628;2023-06-10T09:32:53;25.30;81.50
8537;DHT22;4306;50.210;10.628;2023-06-10T09:35:22;25.30;81.10
8537;DHT22;4306;50.210;10.628;2023-06-10T09:37:51;25.40;80.90
8537;DHT22;4306;50.210;10.628;2023-06-10T09:40:19;25.40;79.20
8537;DHT22;4306;50.210;10.628;2023-06-10T09:42:46;25.40;81.80
8537;DHT22;4306;50.210;10.628;2023-06-10T09:45:21;25.50;81.50
8537;DHT22;4306;50.210;10.628;2023-06-10T09:47:51;25.70;80.10
8537;DHT22;4306;50.210;10.628;2023-06-10T09:50:19;25.70;78.80
8537;DHT22;4306;50.210;10.628;2023-06-10T09:52:46;25.80;78.80
8537;DHT22;4306;50.210;10.628;2023-06-10T09:55:16;25.80;78.60
8537;DHT22;4306;50.210;10.628;2023-06-10T09:57:43;25.80;77.70
8537;DHT22;4306;50.210;10.628;2023-06-10T10:00:14;25.80;78.30
8537;DHT22;4306;50.210;10.628;2023-06-10T10:02:46;26.00;78.40
8537;DHT22;4306;50.210;10.628;2023-06-10T10:05:14;26.10;76.90
8537;DHT22;4306;50.210;10.628;2023-06-10T10:07:42;26.20;75.10
8537;DHT22;4306;50.210;10.628;2023-06-10T10:10:09;26.30;75.90
8537;DHT22;4306;50.210;10.628;2023-06-10T10:12:39;26.40;75.20
8537;DHT22;4306;50.210;10.628;2023-06-10T10:15:07;26.50;73.90
8537;DHT22;4306;50.210;10.628;2023-06-10T10:17:35;26.60;75.10
8537;DHT22;4306;50.210;10.628;2023-06-10T10:20:05;26.80;74.90
8537;DHT22;4306;50.210;10.628;2023-06-10T10:22:37;26.90;74.30
8537;DHT22;4306;50.210;10.628;2023-06-10T10:25:10;27.00;74.20
8537;DHT22;4306;50.210;10.628;2023-06-10T10:27:44;27.10;74.50
8537;DHT22;4306;50.210;10.628;2023-06-10T10:30:14;27.20;72.90
8537;DHT22;4306;50.210;10.628;2023-06-10T10:32:52;27.20;71.70
8537;DHT22;4306;50.210;10.628;2023-06-10T10:35:22;27.20;72.40
8537;DHT22;4306;50.210;10.628;2023-06-10T10:37:51;27.10;72.40
8537;DHT22;4306;50.210;10.628;2023-06-10T10:40:19;26.90;73.00
8537;DHT22;4306;50.210;10.628;2023-06-10T10:42:49;26.90;71.40
8537;DHT22;4306;50.210;10.628;2023-06-10T10:45:17;26.90;72.40
8537;DHT22;4306;50.210;10.628;2023-06-10T10:47:52;27.00;70.20
8537;DHT22;4306;50.210;10.628;2023-06-10T10:50:20;27.10;70.30
8537;DHT22;4306;50.210;10.628;2023-06-10T10:52:52;27.20;70.10
8537;DHT22;4306;50.210;10.628;2023-06-10T10:55:20;27.20;69.00
8537;DHT22;4306;50.210;10.628;2023-06-10T10:57:55;27.20;69.90
8537;DHT22;4306;50.210;10.628;2023-06-10T11:00:30;27.30;69.70
8537;DHT22;4306;50.210;10.628;2023-06-10T11:03:05;27.20;68.40
8537;DHT22;4306;50.210;10.628;2023-06-10T11:05:37;27.20;69.00
8537;DHT22;4306;50.210;10.628;2023-06-10T11:08:05;27.40;68.70
8537;DHT22;4306;50.210;10.628;2023-06-10T11:10:35;27.60;68.70
8537;DHT22;4306;50.210;10.628;2023-06-10T11:13:08;27.80;67.60
8537;DHT22;4306;50.210;10.628;2023-06-10T11:15:45;28.00;66.80
8537;DHT22;4306;50.210;10.628;2023-06-10T11:18:14;27.90;65.40
8537;DHT22;4306;50.210;10.628;2023-06-10T11:21:00;28.00;66.30
8537;DHT22;4306;50.210;10.628;2023-06-10T11:23:41;28.20;66.10
8537;DHT22;4306;50.210;10.628;2023-06-10T11:26:16;28.30;65.60
8537;DHT22;4306;50.210;10.628;2023-06-10T11:29:04;28.40;65.70
8537;DHT22;4306;50.210;10.628;2023-06-10T11:31:32;28.50;65.20
8537;DHT22;4306;50.210;10.628;2023-06-10T11:34:00;28.50;65.70
8537;DHT22;4306;50.210;10.628;2023-06-10T11:36:29;28.40;65.70
8537;DHT22;4306;50.210;10.628;2023-06-10T11:38:57;28.20;64.90
8537;DHT22;4306;50.210;10.628;2023-06-10T11:41:25;28.30;66.10
8537;DHT22;4306;50.210;10.628;2023-06-10T11:43:52;28.50;65.80
8537;DHT22;4306;50.210;10.628;2023-06-10T11:46:22;28.50;65.00
8537;DHT22;4306;50.210;10.628;2023-06-10T11:48:51;28.60;63.80
8537;DHT22;4306;50.210;10.628;2023-06-10T11:51:18;28.30;63.80
8537;DHT22;4306;50.210;10.628;2023-06-10T11:53:48;28.40;65.20
8537;DHT22;4306;50.210;10.628;2023-06-10T11:56:19;28.20;63.00
8537;DHT22;4306;50.210;10.628;2023-06-10T11:58:52;28.30;64.50
8537;DHT22;4306;50.210;10.628;2023-06-10T12:01:21;28.50;64.10
8537;DHT22;4306;50.210;10.628;2023-06-10T12:03:57;28.60;63.20
8537;DHT22;4306;50.210;10.628;2023-06-10T12:06:24;28.80;64.50
8537;DHT22;4306;50.210;10.628;2023-06-10T12:08:53;28.90;63.70
8537;DHT22;4306;50.210;10.628;2023-06-10T12:11:20;29.10;63.60
8537;DHT22;4306;50.210;10.628;2023-06-10T12:13:49;29.10;63.50
8537;DHT22;4306;50.210;10.628;2023-06-10T12:16:16;29.00;63.60
8537;DHT22;4306;50.210;10.628;2023-06-10T12:18:47;29.20;62.80
8537;DHT22;4306;50.210;10.628;2023-06-10T12:21:18;29.30;62.90
8537;DHT22;4306;50.210;10.628;2023-06-10T12:24:07;29.40;61.30
8537;DHT22;4306;50.210;10.628;2023-06-10T12:26:39;29.50;60.60
8537;DHT22;4306;50.210;10.628;2023-06-10T12:29:19;29.60;63.40
8537;DHT22;4306;50.210;10.628;2023-06-10T12:31:55;29.80;62.10
8537;DHT22;4306;50.210;10.628;2023-06-10T12:34:32;29.70;62.20
8537;DHT22;4306;50.210;10.628;2023-06-10T12:36:59;29.50;62.70
8537;DHT22;4306;50.210;10.628;2023-06-10T12:39:27;29.50;62.30
8537;DHT22;4306;50.210;10.628;2023-06-10T12:41:54;29.10;63.30
8537;DHT22;4306;50.210;10.628;2023-06-10T12:44:31;29.00;64.00
8537;DHT22;4306;50.210;10.628;2023-06-10T12:50:32;29.10;64.90
8537;DHT22;4306;50.210;10.628;2023-06-10T12:52:59;29.20;64.90
8537;DHT22;4306;50.210;10.628;2023-06-10T12:55:27;29.10;64.40
8537;DHT22;4306;50.210;10.628;2023-06-10T12:57:54;29.00;65.10
8537;DHT22;4306;50.210;10.628;2023-06-10T13:00:22;28.80;66.80
8537;DHT22;4306;50.210;10.628;2023-06-10T13:02:51;28.60;72.60
8537;DHT22;4306;50.210;10.628;2023-06-10T13:05:19;28.50;81.00
8537;DHT22;4306;50.210;10.628;2023-06-10T13:07:47;28.10;82.90
8537;DHT22;4306;50.210;10.628;2023-06-10T13:10:15;28.10;84.40
8537;DHT22;4306;50.210;10.628;2023-06-10T13:12:43;28.00;85.90
8537;DHT22;4306;50.210;10.628;2023-06-10T13:15:10;28.00;87.60
8537;DHT22;4306;50.210;10.628;2023-06-10T13:17:38;27.90;90.40
8537;DHT22;4306;50.210;10.628;2023-06-10T13:20:07;27.70;88.70
8537;DHT22;4306;50.210;10.628;2023-06-10T13:22:34;27.20;88.80
8537;DHT22;4306;50.210;10.628;2023-06-10T13:25:04;27.10;91.20
8537;DHT22;4306;50.210;10.628;2023-06-10T13:27:33;27.20;91.60
8537;DHT22;4306;50.210;10.628;2023-06-10T13:30:00;27.00;90.20
8537;DHT22;4306;50.210;10.628;2023-06-10T13:32:28;26.70;89.20
8537;DHT22;4306;50.210;10.628;2023-06-10T13:34:55;26.30;89.80
8537;DHT22;4306;50.210;10.628;2023-06-10T13:37:22;25.90;90.00
8537;DHT22;4306;50.210;10.628;2023-06-10T13:39:49;25.90;90.10
8537;DHT22;4306;50.210;10.628;2023-06-10T13:42:17;26.00;89.40
8537;DHT22;4306;50.210;10.628;2023-06-10T13:44:44;25.70;88.80
8537;DHT22;4306;50.210;10.628;2023-06-10T13:47:12;26.10;90.30
8537;DHT22;4306;50.210;10.628;2023-06-10T13:49:39;26.20;89.60
8537;DHT22;4306;50.210;10.628;2023-06-10T13:52:07;25.90;87.00
8537;DHT22;4306;50.210;10.628;2023-06-10T13:54:34;26.00;87.80
8537;DHT22;4306;50.210;10.628;2023-06-10T13:57:02;25.90;86.90
8537;DHT22;4306;50.210;10.628;2023-06-10T13:59:30;25.60;87.80
8537;DHT22;4306;50.210;10.628;2023-06-10T14:01:57;25.90;87.40
8537;DHT22;4306;50.210;10.628;2023-06-10T14:04:24;25.80;87.90
8537;DHT22;4306;50.210;10.628;2023-06-10T14:06:51;25.40;90.30
8537;DHT22;4306;50.210;10.628;2023-06-10T14:09:18;25.20;89.20
8537;DHT22;4306;50.210;10.628;2023-06-10T14:11:45;25.30;89.00
8537;DHT22;4306;50.210;10.628;2023-06-10T14:14:13;25.00;89.90
8537;DHT22;4306;50.210;10.628;2023-06-10T14:16:42;24.90;90.60
8537;DHT22;4306;50.210;10.628;2023-06-10T14:19:09;24.90;91.10
8537;DHT22;4306;50.210;10.628;2023-06-10T14:21:36;24.50;91.60
8537;DHT22;4306;50.210;10.628;2023-06-10T14:24:03;24.20;92.30
8537;DHT22;4306;50.210;10.628;2023-06-10T14:26:30;24.40;91.90
8537;DHT22;4306;50.210;10.628;2023-06-10T14:28:58;24.50;92.10
8537;DHT22;4306;50.210;10.628;2023-06-10T14:31:25;24.40;92.30
8537;DHT22;4306;50.210;10.628;2023-06-10T14:33:53;24.60;91.80
8537;DHT22;4306;50.210;10.628;2023-06-10T14:36:20;24.70;91.50
8537;DHT22;4306;50.210;10.628;2023-06-10T14:38:47;25.00;91.30
8537;DHT22;4306;50.210;10.628;2023-06-10T14:41:14;25.20;90.90
8537;DHT22;4306;50.210;10.628;2023-06-10T14:43:41;25.50;90.40
8537;DHT22;4306;50.210;10.628;2023-06-10T14:46:08;25.70;90.70
8537;DHT22;4306;50.210;10.628;2023-06-10T14:48:35;26.00;87.60
8537;DHT22;4306;50.210;10.628;2023-06-10T14:51:04;26.30;85.70
8537;DHT22;4306;50.210;10.628;2023-06-10T14:53:30;26.40;82.70
8537;DHT22;4306;50.210;10.628;2023-06-10T14:55:57;26.60;80.90
8537;DHT22;4306;50.210;10.628;2023-06-10T14:58:24;26.80;81.00
8537;DHT22;4306;50.210;10.628;2023-06-10T15:00:51;27.00;79.50
8537;DHT22;4306;50.210;10.628;2023-06-10T15:03:18;27.20;75.90
8537;DHT22;4306;50.210;10.628;2023-06-10T15:05:45;27.40;77.00
8537;DHT22;4306;50.210;10.628;2023-06-10T15:08:13;27.50;74.30
8537;DHT22;4306;50.210;10.628;2023-06-10T15:10:40;27.50;74.40
8537;DHT22;4306;50.210;10.628;2023-06-10T15:13:07;27.60;74.60
8537;DHT22;4306;50.210;10.628;2023-06-10T15:15:34;27.50;74.70
8537;DHT22;4306;50.210;10.628;2023-06-10T15:18:00;27.40;75.70
8537;DHT22;4306;50.210;10.628;2023-06-10T15:20:27;26.80;76.10
8537;DHT22;4306;50.210;10.628;2023-06-10T15:22:54;27.00;77.40
8537;DHT22;4306;50.210;10.628;2023-06-10T15:25:22;27.20;77.20
8537;DHT22;4306;50.210;10.628;2023-06-10T15:27:50;27.00;76.10
8537;DHT22;4306;50.210;10.628;2023-06-10T15:30:17;27.10;75.70
8537;DHT22;4306;50.210;10.628;2023-06-10T15:32:44;27.20;75.70
8537;DHT22;4306;50.210;10.628;2023-06-10T15:35:11;27.10;75.80
8537;DHT22;4306;50.210;10.628;2023-06-10T15:37:38;27.20;77.30
8537;DHT22;4306;50.210;10.628;2023-06-10T15:40:06;27.00;76.30
8537;DHT22;4306;50.210;10.628;2023-06-10T15:42:34;27.00;75.60
8537;DHT22;4306;50.210;10.628;2023-06-10T15:45:02;27.10;76.30
8537;DHT22;4306;50.210;10.628;2023-06-10T15:47:29;27.20;76.30
8537;DHT22;4306;50.210;10.628;2023-06-10T15:49:55;27.00;75.60
8537;DHT22;4306;50.210;10.628;2023-06-10T15:52:23;26.90;77.00
8537;DHT22;4306;50.210;10.628;2023-06-10T15:54:50;26.70;76.90
8537;DHT22;4306;50.210;10.628;2023-06-10T15:57:17;26.70;76.70